Time;durP1;ratioP1;P1;durP2;ratioP2;P2;SDS_P1;SDS_P2;PMS_P1;PMS_P2;Temp;Humidity;BMP_temperature;BMP_pressure;BME280_temperature;BME280_humidity;BME280_pressure;Samples;Min_cycle;Max_cycle;Signal;HPM_P1;HPM_P2
2023/10/26 00:01:01;;;;;;;2.67;1.50;;;11.90;99.90;;;;;;5033156;28;20450;-64
2023/10/26 00:03:29;;;;;;;1.60;1.50;;;11.90;99.90;;;;;;5033078;28;20536;-64
2023/10/26 00:05:56;;;;;;;4.00;1.20;;;11.90;99.90;;;;;;5032637;28;20470;-64
2023/10/26 00:08:23;;;;;;;1.17;1.10;;;11.80;99.90;;;;;;5032997;28;20453;-65
2023/10/26 00:10:50;;;;;;;1.70;1.60;;;11.80;99.90;;;;;;5032967;28;20568;-64
2023/10/26 00:13:17;;;;;;;4.87;1.50;;;11.80;99.90;;;;;;5033280;28;20535;-65
2023/10/26 00:15:44;;;;;;;1.57;1.30;;;11.80;99.90;;;;;;5032365;28;20485;-65
2023/10/26 00:18:11;;;;;;;1.43;1.33;;;11.70;99.90;;;;;;5032994;28;20456;-64
2023/10/26 00:20:39;;;;;;;3.53;1.37;;;11.70;99.90;;;;;;5032797;28;20473;-64
2023/10/26 00:23:07;;;;;;;2.30;2.10;;;11.70;99.90;;;;;;5032644;28;20454;-64
2023/10/26 00:25:33;;;;;;;1.13;1.10;;;11.70;99.90;;;;;;5032491;28;20470;-64
2023/10/26 00:28:00;;;;;;;1.83;1.50;;;11.70;99.90;;;;;;5032696;28;20486;-64
2023/10/26 00:30:27;;;;;;;2.00;1.90;;;11.70;99.90;;;;;;5032594;28;20489;-64
2023/10/26 00:32:54;;;;;;;1.47;1.40;;;11.70;99.90;;;;;;5032763;28;20537;-64
2023/10/26 00:35:21;;;;;;;2.00;1.90;;;11.70;99.90;;;;;;5032263;28;20556;-65
2023/10/26 00:37:49;;;;;;;1.60;1.50;;;11.70;99.90;;;;;;5032399;28;20457;-64
2023/10/26 00:40:16;;;;;;;1.90;1.80;;;11.60;99.90;;;;;;5032337;28;20517;-64
2023/10/26 00:42:43;;;;;;;1.20;1.20;;;11.70;99.90;;;;;;5031410;28;20536;-65
2023/10/26 00:45:10;;;;;;;1.80;1.70;;;11.60;99.90;;;;;;5031827;28;20653;-64
2023/10/26 00:47:38;;;;;;;2.43;1.67;;;11.60;99.90;;;;;;5030910;28;20482;-64
2023/10/26 00:50:06;;;;;;;1.40;1.30;;;11.60;99.90;;;;;;5031921;28;20599;-64
2023/10/26 00:52:35;;;;;;;1.20;1.20;;;11.50;99.90;;;;;;5032122;28;20444;-64
2023/10/26 00:55:06;;;;;;;2.80;2.70;;;11.50;99.90;;;;;;5031917;28;20457;-64
2023/10/26 00:57:34;;;;;;;3.60;1.73;;;11.40;99.90;;;;;;5032147;28;20448;-64
2023/10/26 01:00:02;;;;;;;2.00;1.80;;;11.50;99.90;;;;;;5031997;28;20453;-63
2023/10/26 01:02:30;;;;;;;1.60;1.50;;;11.40;99.90;;;;;;5031773;28;20508;-64
2023/10/26 01:04:57;;;;;;;1.60;1.50;;;11.40;99.90;;;;;;5031811;28;20449;-64
2023/10/26 01:07:23;;;;;;;2.23;2.03;;;11.30;99.90;;;;;;5031835;28;20545;-64
2023/10/26 01:09:50;;;;;;;2.20;2.00;;;11.30;99.90;;;;;;5031862;28;20496;-64
2023/10/26 01:12:19;;;;;;;2.53;1.90;;;11.30;99.90;;;;;;5031893;28;20864;-64
2023/10/26 01:14:46;;;;;;;1.80;1.70;;;11.20;99.90;;;;;;5031396;28;20886;-64
2023/10/26 01:17:13;;;;;;;1.73;1.63;;;11.20;99.90;;;;;;5031575;28;20545;-64
2023/10/26 01:19:41;;;;;;;2.40;2.20;;;11.20;99.90;;;;;;5031639;28;20442;-64
2023/10/26 01:22:10;;;;;;;4.03;2.50;;;11.20;99.90;;;;;;5031668;28;21014;-64
2023/10/26 01:24:37;;;;;;;2.23;2.03;;;11.20;99.90;;;;;;5031415;28;20532;-65
2023/10/26 01:27:05;;;;;;;2.87;2.00;;;11.20;99.90;;;;;;5030862;28;20879;-63
2023/10/26 01:29:32;;;;;;;2.60;2.37;;;11.10;99.90;;;;;;5031410;28;20453;-64
2023/10/26 01:31:59;;;;;;;3.17;2.03;;;11.10;99.90;;;;;;5031744;28;20470;-64
2023/10/26 01:34:26;;;;;;;2.73;2.07;;;11.10;99.90;;;;;;5031600;28;20537;-64
2023/10/26 01:36:53;;;;;;;2.73;2.00;;;11.10;99.90;;;;;;5031340;28;20472;-64
2023/10/26 01:39:21;;;;;;;2.37;2.17;;;11.00;99.90;;;;;;5031574;28;20449;-64
2023/10/26 01:41:48;;;;;;;2.53;2.33;;;11.00;99.90;;;;;;5031392;28;20475;-64
2023/10/26 01:44:15;;;;;;;2.43;2.30;;;11.00;99.90;;;;;;5031205;28;20456;-64
2023/10/26 01:46:42;;;;;;;2.60;2.50;;;11.00;99.90;;;;;;5030813;28;20480;-64
2023/10/26 01:49:10;;;;;;;2.50;2.37;;;11.00;99.90;;;;;;5031436;28;20525;-64
2023/10/26 01:51:37;;;;;;;2.20;2.10;;;11.00;99.90;;;;;;5031335;28;20481;-64
2023/10/26 01:54:04;;;;;;;2.60;2.17;;;11.00;99.90;;;;;;5031270;28;20456;-64
2023/10/26 01:56:32;;;;;;;3.90;2.93;;;11.00;99.90;;;;;;5030833;28;21031;-64
2023/10/26 01:58:59;;;;;;;2.53;2.40;;;11.00;99.90;;;;;;5031233;28;21159;-64
2023/10/26 02:01:26;;;;;;;2.80;2.60;;;11.00;99.90;;;;;;5031205;28;20437;-64
2023/10/26 02:03:53;;;;;;;4.00;2.37;;;11.00;99.90;;;;;;5031534;28;20445;-64
2023/10/26 02:06:20;;;;;;;2.50;2.23;;;11.00;99.90;;;;;;5030759;28;20553;-64
2023/10/26 02:08:46;;;;;;;1.80;1.70;;;11.00;99.90;;;;;;5031361;28;20518;-64
2023/10/26 02:11:13;;;;;;;2.53;2.40;;;11.00;99.90;;;;;;5031000;28;20477;-64
2023/10/26 02:13:41;;;;;;;3.57;2.30;;;11.00;99.90;;;;;;5031119;28;20449;-64
2023/10/26 02:16:08;;;;;;;2.30;2.20;;;11.00;99.90;;;;;;5030964;28;20904;-64
2023/10/26 02:18:35;;;;;;;3.20;2.90;;;11.00;99.90;;;;;;5031249;28;20536;-64
2023/10/26 02:21:02;;;;;;;2.37;2.27;;;11.00;99.90;;;;;;5031131;28;20477;-64
2023/10/26 02:23:29;;;;;;;3.37;2.80;;;11.00;99.90;;;;;;5031080;28;20472;-64
2023/10/26 02:25:56;;;;;;;2.53;2.33;;;11.00;99.90;;;;;;5030451;28;20987;-64
2023/10/26 02:28:23;;;;;;;2.63;2.43;;;10.90;99.90;;;;;;5031174;28;20453;-64
2023/10/26 02:30:51;;;;;;;1.80;1.70;;;10.90;99.90;;;;;;5030763;28;20576;-64
2023/10/26 02:33:18;;;;;;;2.87;2.67;;;10.90;99.90;;;;;;5031045;28;20441;-64
2023/10/26 02:35:45;;;;;;;2.80;2.60;;;10.90;99.90;;;;;;5030580;28;20477;-64
2023/10/26 02:38:12;;;;;;;2.70;2.30;;;10.80;99.90;;;;;;5031722;28;20540;-64
2023/10/26 02:40:39;;;;;;;3.10;2.87;;;10.80;99.90;;;;;;5035124;28;20449;-64
2023/10/26 02:43:06;;;;;;;2.70;2.50;;;10.90;99.90;;;;;;5034614;28;20533;-64
2023/10/26 02:45:33;;;;;;;3.07;2.20;;;10.90;99.90;;;;;;5034350;28;20473;-63
2023/10/26 02:48:03;;;;;;;2.33;2.20;;;10.90;99.90;;;;;;5034573;28;20464;-63
2023/10/26 02:50:30;;;;;;;2.77;2.57;;;10.90;99.90;;;;;;5034439;28;21007;-64
2023/10/26 02:52:57;;;;;;;2.50;2.30;;;10.90;99.90;;;;;;5034624;28;20461;-64
2023/10/26 02:55:25;;;;;;;2.57;2.37;;;10.90;99.90;;;;;;5034377;28;20548;-64
2023/10/26 02:57:52;;;;;;;2.37;2.17;;;10.90;99.90;;;;;;5034637;28;20446;-64
2023/10/26 03:00:19;;;;;;;3.07;2.83;;;10.90;99.90;;;;;;5034175;28;20441;-64
2023/10/26 03:02:46;;;;;;;2.27;2.07;;;10.80;99.90;;;;;;5034392;28;20446;-64
2023/10/26 03:05:15;;;;;;;2.40;2.17;;;10.90;99.90;;;;;;5033967;28;20549;-64
2023/10/26 03:07:45;;;;;;;2.57;2.37;;;10.80;99.90;;;;;;5034397;28;20456;-63
2023/10/26 03:10:12;;;;;;;2.13;2.03;;;10.90;99.90;;;;;;5034333;28;20567;-64
2023/10/26 03:12:38;;;;;;;2.70;2.50;;;10.90;99.90;;;;;;5034070;28;20461;-63
2023/10/26 03:15:07;;;;;;;3.23;2.70;;;10.90;99.90;;;;;;5033712;28;20450;-64
2023/10/26 03:17:33;;;;;;;2.53;2.33;;;10.90;99.90;;;;;;5034127;28;20481;-64
2023/10/26 03:20:00;;;;;;;2.67;2.47;;;10.90;99.90;;;;;;5033731;28;20450;-64
2023/10/26 03:22:28;;;;;;;2.33;2.17;;;10.90;99.90;;;;;;5034127;28;20457;-64
2023/10/26 03:24:55;;;;;;;2.50;2.40;;;10.90;99.90;;;;;;5033655;28;20887;-64
2023/10/26 03:27:22;;;;;;;2.57;2.47;;;10.90;99.90;;;;;;5034282;28;20210;-64
2023/10/26 03:29:49;;;;;;;2.50;2.30;;;10.90;99.90;;;;;;5033759;28;21023;-64
2023/10/26 03:32:15;;;;;;;2.60;2.50;;;10.90;99.90;;;;;;5033599;28;20576;-64
2023/10/26 03:34:42;;;;;;;3.00;2.70;;;10.90;99.90;;;;;;5033353;28;20450;-64
2023/10/26 03:37:09;;;;;;;3.23;3.03;;;10.90;99.90;;;;;;5033786;28;20473;-64
2023/10/26 03:39:37;;;;;;;3.00;2.70;;;10.90;99.90;;;;;;5032516;28;20813;-64
2023/10/26 03:42:04;;;;;;;3.53;2.53;;;10.90;99.90;;;;;;5033309;28;20446;-64
2023/10/26 03:44:31;;;;;;;2.83;2.63;;;10.80;99.90;;;;;;5033538;28;20535;-64
2023/10/26 03:46:58;;;;;;;2.93;2.73;;;10.80;99.90;;;;;;5033139;28;20488;-64
2023/10/26 03:49:25;;;;;;;3.00;2.80;;;10.80;99.90;;;;;;5033187;28;21140;-64
2023/10/26 03:51:52;;;;;;;2.83;2.63;;;10.80;99.90;;;;;;5032975;28;20492;-64
2023/10/26 03:54:18;;;;;;;2.47;2.27;;;10.80;99.90;;;;;;5033125;28;20827;-64
2023/10/26 03:56:47;;;;;;;2.60;2.50;;;10.70;99.90;;;;;;5033076;28;20468;-64
2023/10/26 03:59:13;;;;;;;2.40;2.20;;;10.70;99.90;;;;;;5033342;28;20442;-64
2023/10/26 04:01:40;;;;;;;3.40;3.10;;;10.70;99.90;;;;;;5033257;28;20438;-63
2023/10/26 04:04:07;;;;;;;2.60;2.40;;;10.70;99.90;;;;;;5033062;28;20680;-64
2023/10/26 04:06:34;;;;;;;2.73;2.53;;;10.60;99.90;;;;;;5032693;28;20497;-64
2023/10/26 04:09:01;;;;;;;2.67;2.47;;;10.60;99.90;;;;;;5032847;28;20823;-64
2023/10/26 04:11:27;;;;;;;3.07;2.87;;;10.60;99.90;;;;;;5033141;28;20491;-64
2023/10/26 04:13:57;;;;;;;3.60;3.30;;;10.50;99.90;;;;;;5033140;28;20966;-64
2023/10/26 04:16:24;;;;;;;3.40;3.00;;;10.50;99.90;;;;;;5032467;28;20469;-63
2023/10/26 04:18:51;;;;;;;2.63;2.43;;;10.50;99.90;;;;;;5032878;28;20238;-65
2023/10/26 04:21:18;;;;;;;2.70;2.50;;;10.50;99.90;;;;;;5032757;28;20530;-64
2023/10/26 04:23:45;;;;;;;3.60;3.30;;;10.40;99.90;;;;;;5032926;28;20540;-64
2023/10/26 04:26:12;;;;;;;2.95;2.75;;;10.40;99.90;;;;;;5032488;28;20472;-64
2023/10/26 04:28:39;;;;;;;2.60;2.43;;;10.40;99.90;;;;;;5032879;28;20607;-64
2023/10/26 04:31:08;;;;;;;2.50;2.40;;;10.30;99.90;;;;;;5032510;28;20832;-64
2023/10/26 04:33:35;;;;;;;4.50;2.70;;;10.30;99.90;;;;;;5032433;28;20482;-64
2023/10/26 04:36:02;;;;;;;3.23;2.93;;;10.30;99.90;;;;;;5031987;28;20223;-64
2023/10/26 04:38:29;;;;;;;3.30;2.87;;;10.30;99.90;;;;;;5032562;28;20453;-64
2023/10/26 04:40:57;;;;;;;3.80;3.50;;;10.20;99.90;;;;;;5032533;28;20529;-64
2023/10/26 04:43:24;;;;;;;3.23;3.00;;;10.20;99.90;;;;;;5032406;28;20453;-64
2023/10/26 04:45:51;;;;;;;2.95;2.75;;;10.10;99.90;;;;;;5031749;28;20477;-64
2023/10/26 04:48:19;;;;;;;2.70;2.50;;;10.10;99.90;;;;;;5032185;28;20246;-64
2023/10/26 04:50:46;;;;;;;3.23;3.03;;;10.10;99.90;;;;;;5031984;28;20481;-64
2023/10/26 04:53:13;;;;;;;4.05;3.65;;;10.00;99.90;;;;;;5032071;28;20906;-64
2023/10/26 04:55:40;;;;;;;3.75;3.45;;;10.00;99.90;;;;;;5031801;28;20223;-63
2023/10/26 04:58:07;;;;;;;3.60;3.30;;;10.00;99.90;;;;;;5032175;28;20582;-64
2023/10/26 05:00:34;;;;;;;3.83;3.53;;;10.00;99.90;;;;;;5032083;28;20477;-64
2023/10/26 05:03:01;;;;;;;6.50;4.83;;;10.00;99.90;;;;;;5030710;28;20214;-64
2023/10/26 05:05:29;;;;;;;5.30;4.80;;;10.00;99.90;;;;;;5031514;28;20480;-64
2023/10/26 05:07:57;;;;;;;7.40;4.83;;;9.90;99.90;;;;;;5031985;28;20541;-64
2023/10/26 05:10:23;;;;;;;10.30;9.33;;;9.90;99.90;;;;;;5032037;28;20456;-64
2023/10/26 05:12:50;;;;;;;8.20;7.50;;;9.90;99.90;;;;;;5031961;28;20446;-64
2023/10/26 05:15:18;;;;;;;3.85;3.35;;;9.90;99.90;;;;;;5031597;28;20921;-64
2023/10/26 05:17:45;;;;;;;4.07;3.77;;;9.90;99.90;;;;;;5031771;28;20233;-63
2023/10/26 05:20:12;;;;;;;3.75;3.45;;;9.90;99.90;;;;;;5031975;28;20915;-64
2023/10/26 05:22:40;;;;;;;4.70;3.63;;;9.90;99.90;;;;;;5032031;28;20203;-64
2023/10/26 05:25:10;;;;;;;3.90;3.60;;;9.90;99.90;;;;;;5031420;28;20207;-63
2023/10/26 05:27:37;;;;;;;3.55;3.25;;;9.80;99.90;;;;;;5031736;28;20639;-64
2023/10/26 05:30:05;;;;;;;3.45;3.22;;;9.80;99.90;;;;;;5031648;28;20210;-64
2023/10/26 05:32:32;;;;;;;6.35;4.60;;;9.80;99.90;;;;;;5031556;28;20241;-64
2023/10/26 05:34:59;;;;;;;5.30;4.20;;;9.80;99.90;;;;;;5031411;28;20217;-64
2023/10/26 05:37:26;;;;;;;5.93;5.20;;;9.80;99.90;;;;;;5031610;28;20213;-64
2023/10/26 05:39:53;;;;;;;5.15;4.65;;;9.70;99.90;;;;;;5031696;28;20593;-63
2023/10/26 05:42:20;;;;;;;4.60;4.25;;;9.80;99.90;;;;;;5031623;28;20226;-64
2023/10/26 05:44:47;;;;;;;5.50;5.00;;;9.80;99.90;;;;;;5031221;28;20207;-64
2023/10/26 05:47:15;;;;;;;5.70;5.20;;;9.70;99.90;;;;;;5031511;28;20234;-64
2023/10/26 05:49:42;;;;;;;7.63;5.72;;;9.80;99.90;;;;;;5031562;28;20222;-64
2023/10/26 05:52:09;;;;;;;5.55;5.03;;;9.70;99.90;;;;;;5031240;28;20321;-63
2023/10/26 05:54:36;;;;;;;6.05;5.00;;;9.70;99.90;;;;;;5030982;28;20297;-64
2023/10/26 05:57:04;;;;;;;9.60;6.82;;;9.70;99.90;;;;;;5031292;28;20241;-64
2023/10/26 05:59:31;;;;;;;8.00;7.05;;;9.70;99.90;;;;;;5031284;28;20214;-63
2023/10/26 06:01:58;;;;;;;6.85;6.18;;;9.70;99.90;;;;;;5031539;28;20199;-63
2023/10/26 06:04:25;;;;;;;6.15;5.65;;;9.60;99.90;;;;;;5031179;28;20203;-63
2023/10/26 06:06:52;;;;;;;6.50;5.90;;;9.60;99.90;;;;;;5031369;28;20880;-64
2023/10/26 06:09:19;;;;;;;6.80;6.20;;;9.60;99.90;;;;;;5031350;28;20203;-63
2023/10/26 06:11:46;;;;;;;6.13;5.63;;;9.50;99.90;;;;;;5031066;28;20227;-63
2023/10/26 06:14:14;;;;;;;7.70;7.00;;;9.50;99.90;;;;;;5034037;28;20715;-64
2023/10/26 06:16:41;;;;;;;7.00;6.40;;;9.50;99.90;;;;;;5034976;28;20227;-64
2023/10/26 06:19:07;;;;;;;5.20;4.70;;;9.50;99.90;;;;;;5034723;28;20203;-64
2023/10/26 06:21:34;;;;;;;6.00;5.50;;;9.50;99.90;;;;;;5028161;28;20438;-64
2023/10/26 06:24:01;;;;;;;7.50;6.88;;;9.50;99.90;;;;;;5015134;28;20239;-63
2023/10/26 06:26:28;;;;;;;6.78;6.07;;;9.50;99.90;;;;;;5014510;28;20323;-63
2023/10/26 06:28:55;;;;;;;7.65;6.95;;;9.50;99.90;;;;;;5014807;28;20211;-64
2023/10/26 06:31:23;;;;;;;5.85;5.10;;;9.40;99.90;;;;;;5015014;28;20220;-63
2023/10/26 06:33:51;;;;;;;4.80;4.50;;;9.40;99.90;;;;;;5014884;28;20211;-64
2023/10/26 06:36:18;;;;;;;4.72;4.32;;;9.40;99.90;;;;;;5014460;28;20374;-63
2023/10/26 06:38:45;;;;;;;3.63;3.33;;;9.40;99.90;;;;;;5014958;28;20204;-63
2023/10/26 06:41:12;;;;;;;4.10;3.72;;;9.40;99.90;;;;;;5014820;28;20218;-64
2023/10/26 06:43:39;;;;;;;4.05;3.65;;;9.30;99.90;;;;;;5030693;28;20310;-63
2023/10/26 06:46:06;;;;;;;3.92;3.50;;;9.30;99.90;;;;;;5033618;28;20330;-64
2023/10/26 06:48:34;;;;;;;4.88;3.95;;;9.20;99.90;;;;;;5025368;28;20210;-64
2023/10/26 06:51:02;;;;;;;4.00;3.60;;;9.20;99.90;;;;;;5033850;28;20227;-64
2023/10/26 06:53:29;;;;;;;3.60;3.30;;;9.20;99.90;;;;;;5034066;28;20210;-63
2023/10/26 06:55:57;;;;;;;4.63;3.75;;;9.10;99.90;;;;;;5028834;28;20684;-64
2023/10/26 06:58:24;;;;;;;3.22;3.00;;;9.10;99.90;;;;;;5034257;28;20207;-63
2023/10/26 07:00:51;;;;;;;4.50;3.40;;;9.00;99.90;;;;;;5030963;28;20203;-64
2023/10/26 07:03:17;;;;;;;6.95;3.67;;;9.00;99.90;;;;;;5033520;28;20207;-64
2023/10/26 07:05:47;;;;;;;4.00;3.70;;;9.00;99.90;;;;;;5032974;28;20915;-63
2023/10/26 07:08:14;;;;;;;3.10;2.90;;;8.90;99.90;;;;;;5033776;28;20302;-64
2023/10/26 07:10:41;;;;;;;4.97;4.60;;;8.90;99.90;;;;;;5031083;28;20199;-64
2023/10/26 07:13:09;;;;;;;5.93;5.32;;;8.90;99.90;;;;;;5033802;28;20745;-63
2023/10/26 07:15:37;;;;;;;3.17;2.97;;;8.80;99.90;;;;;;5032946;28;20230;-63
2023/10/26 07:18:05;;;;;;;4.60;3.40;;;8.80;99.90;;;;;;5033886;28;20207;-63
2023/10/26 07:20:31;;;;;;;4.50;3.20;;;8.80;99.90;;;;;;5029589;28;20645;-64
2023/10/26 07:23:00;;;;;;;4.68;4.38;;;8.80;99.90;;;;;;5034208;28;20206;-63
2023/10/26 07:25:26;;;;;;;3.83;3.50;;;8.80;99.90;;;;;;5031812;28;20241;-63
2023/10/26 07:27:53;;;;;;;3.97;3.67;;;8.80;99.90;;;;;;5033654;28;20564;-64
2023/10/26 07:30:20;;;;;;;3.90;3.40;;;8.80;99.90;;;;;;5030146;28;20207;-63
2023/10/26 07:32:47;;;;;;;4.22;3.92;;;8.80;99.90;;;;;;5033173;28;20306;-63
2023/10/26 07:35:15;;;;;;;4.35;3.15;;;8.80;99.90;;;;;;5027760;28;20341;-64
2023/10/26 07:37:41;;;;;;;3.08;2.88;;;8.80;99.90;;;;;;5032193;28;20203;-63
2023/10/26 07:40:10;;;;;;;4.00;3.60;;;8.80;99.90;;;;;;5032658;28;20213;-64
2023/10/26 07:42:37;;;;;;;3.75;3.28;;;8.80;99.90;;;;;;5033260;28;20286;-63
2023/10/26 07:45:06;;;;;;;3.40;3.10;;;8.80;99.90;;;;;;5030718;28;20294;-64
2023/10/26 07:47:33;;;;;;;4.03;3.72;;;8.90;99.90;;;;;;5033346;28;20594;-64
2023/10/26 07:50:00;;;;;;;5.15;4.00;;;8.90;99.90;;;;;;5029455;28;20589;-63
2023/10/26 07:52:27;;;;;;;3.83;3.53;;;9.00;99.90;;;;;;5033318;28;20234;-64
2023/10/26 07:54:54;;;;;;;3.13;2.92;;;9.10;99.90;;;;;;5031579;28;20254;-64
2023/10/26 07:57:22;;;;;;;4.78;4.28;;;9.20;99.90;;;;;;5028516;28;20207;-63
2023/10/26 07:59:49;;;;;;;7.72;4.00;;;9.30;99.90;;;;;;5032668;28;20231;-64
2023/10/26 08:02:16;;;;;;;4.57;4.10;;;9.40;99.90;;;;;;5032684;28;20658;-64
2023/10/26 08:04:43;;;;;;;6.13;5.53;;;9.50;99.90;;;;;;5032145;28;20529;-64
2023/10/26 08:07:10;;;;;;;8.07;4.85;;;9.60;99.90;;;;;;5027153;28;20835;-64
2023/10/26 08:09:37;;;;;;;5.70;5.10;;;9.70;99.90;;;;;;5032730;28;20211;-64
2023/10/26 08:12:04;;;;;;;4.35;4.00;;;9.80;99.90;;;;;;5032078;28;20319;-64
2023/10/26 08:14:32;;;;;;;4.30;4.00;;;10.00;99.90;;;;;;5032299;28;20246;-63
2023/10/26 08:16:59;;;;;;;5.22;3.83;;;10.10;99.90;;;;;;5032204;28;20223;-64
2023/10/26 08:19:26;;;;;;;3.80;3.60;;;10.20;99.90;;;;;;5068829;22;20249;-68
2023/10/26 08:21:53;;;;;;;4.38;3.97;;;10.20;99.90;;;;;;5052890;28;20203;-68
2023/10/26 08:24:20;;;;;;;3.80;3.50;;;10.30;99.90;;;;;;5052611;28;20210;-68
2023/10/26 08:26:48;;;;;;;5.63;5.00;;;10.40;99.90;;;;;;5052506;28;20452;-68
2023/10/26 08:29:15;;;;;;;4.40;3.80;;;10.50;99.90;;;;;;5049829;28;20746;-68
2023/10/26 08:31:43;;;;;;;4.03;3.63;;;10.50;99.90;;;;;;5038991;28;20448;-68
2023/10/26 08:34:11;;;;;;;3.23;2.93;;;10.60;99.90;;;;;;5032217;28;20213;-68
2023/10/26 08:36:38;;;;;;;3.67;3.07;;;10.70;99.90;;;;;;5031338;28;20454;-68
2023/10/26 08:39:07;;;;;;;3.77;3.30;;;10.80;99.90;;;;;;5031838;28;20474;-68
2023/10/26 08:41:36;;;;;;;4.03;3.73;;;10.80;99.90;;;;;;5032148;28;20454;-68
2023/10/26 08:44:04;;;;;;;4.33;4.00;;;10.90;99.90;;;;;;5031744;28;20834;-68
2023/10/26 08:46:32;;;;;;;2.93;2.60;;;10.90;99.90;;;;;;5031227;28;20453;-68
2023/10/26 08:49:02;;;;;;;3.10;2.90;;;10.90;99.90;;;;;;5031517;28;20474;-68
2023/10/26 08:51:30;;;;;;;3.90;3.60;;;10.90;99.90;;;;;;5031399;28;20454;-67
2023/10/26 08:53:57;;;;;;;3.30;3.10;;;11.00;99.90;;;;;;5044882;28;20484;-68
2023/10/26 08:56:25;;;;;;;2.87;2.57;;;11.00;99.90;;;;;;5041572;28;20448;-68
2023/10/26 08:58:57;;;;;;;2.80;2.60;;;11.00;99.90;;;;;;5046980;28;20524;-68
2023/10/26 09:01:25;;;;;;;2.90;2.53;;;11.00;99.90;;;;;;5046337;28;20507;-68
2023/10/26 09:03:53;;;;;;;2.77;2.60;;;11.00;99.90;;;;;;5050348;28;20448;-68
2023/10/26 09:06:22;;;;;;;3.00;2.70;;;11.00;99.90;;;;;;5050368;28;20451;-68
2023/10/26 09:09:02;;;;;;;2.90;2.70;;;11.00;99.90;;;;;;5050910;28;20616;-68
2023/10/26 09:11:30;;;;;;;2.90;2.77;;;11.10;99.90;;;;;;5050844;28;21021;-68
2023/10/26 09:14:13;;;;;;;2.40;2.20;;;11.10;99.90;;;;;;5049374;28;20488;-68
2023/10/26 09:16:43;;;;;;;2.30;2.20;;;11.20;99.90;;;;;;5049811;28;20452;-69
2023/10/26 09:19:12;;;;;;;2.57;2.10;;;11.20;99.90;;;;;;5049719;28;21054;-69
2023/10/26 09:21:56;;;;;;;1.97;1.87;;;11.30;99.90;;;;;;5047914;28;20448;-69
2023/10/26 09:24:30;;;;;;;2.07;1.97;;;11.30;99.90;;;;;;5045627;28;21148;-70
2023/10/26 09:26:59;;;;;;;2.40;2.30;;;11.40;99.90;;;;;;5049628;28;20448;-69
2023/10/26 09:29:36;;;;;;;3.37;3.07;;;11.40;99.90;;;;;;5049456;28;20469;-69
2023/10/26 09:32:04;;;;;;;1.90;1.80;;;11.40;99.90;;;;;;5049805;28;20445;-69
2023/10/26 09:34:30;;;;;;;2.40;2.30;;;11.50;99.90;;;;;;5049824;28;20449;-70
2023/10/26 09:37:03;;;;;;;2.20;2.10;;;11.50;99.90;;;;;;5049998;28;20506;-69
2023/10/26 09:39:31;;;;;;;4.93;4.50;;;11.60;99.90;;;;;;5049843;28;21020;-69
2023/10/26 09:42:00;;;;;;;2.50;2.30;;;11.70;99.90;;;;;;5050638;28;20452;-69
2023/10/26 09:44:27;;;;;;;3.03;1.67;;;11.80;99.90;;;;;;5050848;28;20869;-70
2023/10/26 09:46:55;;;;;;;2.60;2.40;;;12.00;99.90;;;;;;5050139;28;21010;-69
2023/10/26 09:49:23;;;;;;;2.10;1.90;;;12.00;99.90;;;;;;5049948;28;20503;-68
2023/10/26 09:51:51;;;;;;;2.10;2.00;;;12.10;99.90;;;;;;5050229;28;20448;-68
2023/10/26 09:54:23;;;;;;;4.63;2.47;;;12.10;99.90;;;;;;5049149;28;20959;-67
2023/10/26 09:56:55;;;;;;;1.47;1.47;;;12.20;99.90;;;;;;5049294;28;20445;-68
2023/10/26 09:59:24;;;;;;;2.30;2.10;;;12.20;99.90;;;;;;5049553;28;20476;-68
2023/10/26 10:01:51;;;;;;;1.87;1.63;;;12.20;99.90;;;;;;5049845;28;20837;-68
2023/10/26 10:04:35;;;;;;;2.13;2.03;;;12.30;99.90;;;;;;5049374;28;20535;-67
2023/10/26 10:07:03;;;;;;;2.30;2.13;;;12.30;99.90;;;;;;5049612;28;20452;-68
2023/10/26 10:09:32;;;;;;;5.20;2.60;;;12.30;99.90;;;;;;5049450;28;20933;-68
2023/10/26 10:12:34;;;;;;;1.67;1.57;;;12.30;99.90;;;;;;5049524;28;20544;-68
2023/10/26 10:15:03;;;;;;;2.63;2.43;;;12.30;99.90;;;;;;5041692;28;20449;-68
2023/10/26 10:18:16;;;;;;;2.20;2.10;;;12.30;99.90;;;;;;5050342;28;20829;-68
2023/10/26 10:20:44;;;;;;;4.17;1.90;;;12.20;99.90;;;;;;5049891;28;20583;-67
2023/10/26 10:23:30;;;;;;;2.73;1.70;;;12.20;99.90;;;;;;5050017;28;20436;-68
2023/10/26 10:26:02;;;;;;;2.00;1.90;;;12.20;99.90;;;;;;5049895;28;20972;-68
2023/10/26 10:28:53;;;;;;;3.70;2.00;;;12.20;99.90;;;;;;5049799;28;20465;-67
2023/10/26 10:31:37;;;;;;;1.77;1.67;;;12.20;99.90;;;;;;5049721;28;21563;-67
2023/10/26 10:34:05;;;;;;;2.30;2.10;;;12.20;99.90;;;;;;5047392;28;20864;-68
2023/10/26 10:37:06;;;;;;;1.80;1.70;;;12.20;99.90;;;;;;5039735;28;20454;-68
2023/10/26 10:39:33;;;;;;;1.87;1.77;;;12.20;99.90;;;;;;5039768;28;20848;-67
2023/10/26 10:42:04;;;;;;;2.30;1.83;;;12.20;99.90;;;;;;5038236;28;20958;-68
2023/10/26 10:44:35;;;;;;;1.80;1.70;;;12.20;99.90;;;;;;5038779;28;20460;-68
2023/10/26 10:47:02;;;;;;;3.00;1.67;;;12.20;99.90;;;;;;5048453;28;20911;-68
2023/10/26 10:49:29;;;;;;;2.10;1.80;;;12.30;99.90;;;;;;5047979;28;21030;-67
2023/10/26 10:51:57;;;;;;;2.97;1.80;;;12.30;99.90;;;;;;5041809;28;20461;-68
2023/10/26 10:54:25;;;;;;;1.83;1.73;;;12.20;99.90;;;;;;5045191;28;20494;-67
2023/10/26 10:56:52;;;;;;;1.87;1.77;;;12.20;99.90;;;;;;5046117;28;20540;-67
2023/10/26 10:59:21;;;;;;;2.43;1.90;;;12.20;99.90;;;;;;5049671;28;20564;-68
2023/10/26 11:01:49;;;;;;;2.10;1.53;;;12.20;99.90;;;;;;5044954;28;20537;-68
2023/10/26 11:04:16;;;;;;;2.73;1.90;;;12.30;99.90;;;;;;5043188;28;20873;-67
2023/10/26 11:06:45;;;;;;;2.33;2.13;;;12.30;99.90;;;;;;5052023;28;20456;-67
2023/10/26 11:09:26;;;;;;;2.50;2.20;;;12.30;99.90;;;;;;5046440;28;20564;-68
2023/10/26 11:11:53;;;;;;;3.50;2.57;;;12.30;99.90;;;;;;5038562;28;20952;-68
2023/10/26 11:14:22;;;;;;;3.10;2.80;;;12.30;99.90;;;;;;5045219;28;20492;-68
2023/10/26 11:16:51;;;;;;;2.87;2.67;;;12.30;99.90;;;;;;5038357;28;20453;-68
2023/10/26 11:19:18;;;;;;;2.63;2.47;;;12.30;99.90;;;;;;5041545;28;21024;-68
2023/10/26 11:21:45;;;;;;;2.73;2.53;;;12.30;99.90;;;;;;5048504;28;20451;-68
2023/10/26 11:24:18;;;;;;;3.50;3.20;;;12.30;99.90;;;;;;5044724;28;20453;-68
2023/10/26 11:27:05;;;;;;;2.60;2.40;;;12.30;99.90;;;;;;5044082;28;20488;-68
2023/10/26 11:29:34;;;;;;;5.10;3.67;;;12.30;99.90;;;;;;5047813;28;20489;-68
2023/10/26 11:32:01;;;;;;;2.97;2.77;;;12.30;99.90;;;;;;5047766;28;20453;-68
2023/10/26 11:34:28;;;;;;;2.80;2.60;;;12.40;99.90;;;;;;5050098;28;21037;-68
2023/10/26 11:36:57;;;;;;;3.57;3.10;;;12.40;99.90;;;;;;5051536;28;20603;-68
2023/10/26 11:39:26;;;;;;;3.23;3.03;;;12.40;99.90;;;;;;5048080;28;20473;-68
2023/10/26 11:41:54;;;;;;;3.50;3.20;;;12.40;99.90;;;;;;5047747;28;20446;-68
2023/10/26 11:44:25;;;;;;;3.50;3.20;;;12.40;99.90;;;;;;5046475;28;20460;-68
2023/10/26 11:46:59;;;;;;;3.90;3.60;;;12.40;99.90;;;;;;5044960;28;20446;-68
2023/10/26 11:49:38;;;;;;;6.33;5.90;;;12.40;99.90;;;;;;5042080;28;20496;-68
2023/10/26 11:52:05;;;;;;;3.80;3.50;;;12.40;99.90;;;;;;5047022;28;20452;-67
2023/10/26 11:54:32;;;;;;;3.70;3.40;;;12.50;99.90;;;;;;5044977;28;20481;-68
2023/10/26 11:56:59;;;;;;;2.60;2.50;;;12.50;99.90;;;;;;5039874;28;20450;-68
2023/10/26 11:59:26;;;;;;;4.07;3.70;;;12.50;99.90;;;;;;5044864;28;20458;-68
2023/10/26 12:01:53;;;;;;;4.37;3.07;;;12.50;99.90;;;;;;5039391;28;20481;-68
2023/10/26 12:04:21;;;;;;;3.30;2.27;;;12.60;99.90;;;;;;5052370;28;20525;-68
2023/10/26 12:06:48;;;;;;;3.40;3.10;;;12.60;99.90;;;;;;5036987;28;20452;-68
2023/10/26 12:09:15;;;;;;;2.93;2.83;;;12.60;99.90;;;;;;5044208;28;20473;-67
2023/10/26 12:11:43;;;;;;;3.17;2.90;;;12.50;99.90;;;;;;5043810;28;20442;-67
2023/10/26 12:14:12;;;;;;;2.60;2.50;;;12.50;99.90;;;;;;5041932;28;20488;-68
2023/10/26 12:16:39;;;;;;;4.77;4.47;;;12.60;99.90;;;;;;5051862;28;20456;-67
2023/10/26 12:19:06;;;;;;;4.33;4.03;;;12.60;99.90;;;;;;5035117;28;20470;-68
2023/10/26 12:21:35;;;;;;;8.90;8.30;;;12.60;99.90;;;;;;5047387;28;21597;-68
2023/10/26 12:24:03;;;;;;;4.97;4.57;;;12.70;99.90;;;;;;5036430;28;20450;-68
2023/10/26 12:26:31;;;;;;;4.63;4.20;;;12.70;99.90;;;;;;5035650;28;21021;-68
2023/10/26 12:28:59;;;;;;;5.10;4.70;;;12.70;99.90;;;;;;5047458;28;20864;-68
2023/10/26 12:31:26;;;;;;;5.90;5.40;;;12.70;99.90;;;;;;5039980;28;20442;-68
2023/10/26 12:33:53;;;;;;;5.63;5.13;;;12.80;99.90;;;;;;5044201;28;20485;-68
2023/10/26 12:36:20;;;;;;;5.33;4.83;;;12.70;99.90;;;;;;5036185;28;20470;-68
2023/10/26 12:38:48;;;;;;;5.23;4.83;;;12.70;99.90;;;;;;5046545;28;20914;-67
2023/10/26 12:41:15;;;;;;;5.03;4.53;;;12.70;99.90;;;;;;5034732;28;20529;-67
2023/10/26 12:43:43;;;;;;;3.67;3.40;;;12.70;99.90;;;;;;5045883;28;20442;-67
2023/10/26 12:46:09;;;;;;;3.70;3.40;;;12.70;99.90;;;;;;5038533;28;20449;-68
2023/10/26 12:48:36;;;;;;;9.17;4.70;;;12.60;99.90;;;;;;5035800;28;20468;-68
2023/10/26 12:51:03;;;;;;;4.10;3.90;;;12.60;99.90;;;;;;5048165;28;21012;-68
2023/10/26 12:53:31;;;;;;;3.97;3.77;;;12.60;99.90;;;;;;5047299;28;21078;-67
2023/10/26 12:55:59;;;;;;;3.50;3.30;;;12.60;99.90;;;;;;5039232;28;20475;-68